Time,TemperatureF,DewpointF,PressureIn,WindDirection,WindDirectionDegrees,WindSpeedMPH,WindSpeedGustMPH,Humidity,HourlyPrecipIn,Conditions,Clouds,dailyrainin,SoftwareType,DateUTC
2013-02-25 00:00:00,-999.9,-99.9,29.97,North,32767,-999.0,0.0,255,-99.99,,,0.00,Wunderground v.1.13,2013-02-25 05:00:00,
2013-02-25 00:30:00,15.2,-99.9,29.99,South,188,0.0,0.0,255,0.00,,,0.00,Wunderground v.1.13,2013-02-25 05:30:00,
2013-02-25 01:00:00,14.1,10.7,30.00,South,188,0.0,0.0,86,0.00,,,0.00,Wunderground v.1.13,2013-02-25 06:00:00,
2013-02-25 01:30:00,-999.9,-99.9,29.99,North,32767,-999.0,0.0,255,-99.99,,,0.00,Wunderground v.1.13,2013-02-25 06:30:00,
2013-02-25 02:00:00,11.1,7.2,30.01,South,188,0.0,0.0,84,0.00,,,0.00,Wunderground v.1.13,2013-02-25 07:00:00,
2013-02-25 02:30:00,10.2,6.3,30.01,South,188,0.0,0.0,84,0.00,,,0.00,Wunderground v.1.13,2013-02-25 07:30:00,
2013-02-25 03:00:00,9.5,5.6,30.02,South,188,0.0,0.0,84,0.00,,,0.00,Wunderground v.1.13,2013-02-25 08:00:00,
2013-02-25 03:30:00,9.2,5.1,30.04,South,188,0.0,0.0,83,0.00,,,0.00,Wunderground v.1.13,2013-02-25 08:30:00,
2013-02-25 04:00:00,7.2,2.3,30.05,South,188,1.0,1.0,80,0.00,,,0.00,Wunderground v.1.13,2013-02-25 09:00:00,
2013-02-25 04:30:00,-999.9,-99.9,29.98,North,32767,-999.0,0.0,255,-99.99,,,0.00,Wunderground v.1.13,2013-02-25 09:30:00,
2013-02-25 05:00:00,5.8,1.2,30.08,South,188,0.0,1.0,81,0.00,,,0.00,Wunderground v.1.13,2013-02-25 10:00:00,
2013-02-25 05:30:00,6.7,2.4,30.10,South,188,0.0,0.0,82,0.00,,,0.00,Wunderground v.1.13,2013-02-25 10:30:00,
2013-02-25 06:00:00,5.4,0.6,30.11,South,188,0.0,1.0,80,0.00,,,0.00,Wunderground v.1.13,2013-02-25 11:00:00,
2013-02-25 06:30:00,4.8,0.0,30.10,South,188,0.0,0.0,80,0.00,,,0.00,Wunderground v.1.13,2013-02-25 11:30:00,
2013-02-25 07:00:00,6.7,2.4,30.11,South,178,0.0,0.0,82,0.00,,,0.00,Wunderground v.1.13,2013-02-25 12:00:00,
2013-02-25 07:30:00,9.0,5.1,30.11,South,178,0.0,0.0,84,0.00,,,0.00,Wunderground v.1.13,2013-02-25 12:30:00,
2013-02-25 08:00:00,11.4,7.5,30.12,South,178,0.0,0.0,84,0.00,,,0.00,Wunderground v.1.13,2013-02-25 13:00:00,
2013-02-25 08:30:00,15.7,12.5,30.12,South,178,0.0,0.0,87,0.00,,,0.00,Wunderground v.1.13,2013-02-25 13:30:00,
2013-02-25 09:00:00,21.1,17.6,30.12,SSE,167,0.0,0.0,86,0.00,,,0.00,Wunderground v.1.13,2013-02-25 14:00:00,
2013-02-25 09:30:00,24.4,19.4,30.12,SSE,162,2.0,2.0,81,0.00,,,0.00,Wunderground v.1.13,2013-02-25 14:30:00,
2013-02-25 10:00:00,25.6,17.5,30.12,SSE,155,1.0,1.0,71,0.00,,,0.00,Wunderground v.1.13,2013-02-25 15:00:00,
2013-02-25 10:30:00,27.3,17.8,30.12,SSE,168,1.0,4.0,67,0.00,,,0.00,Wunderground v.1.13,2013-02-25 15:30:00,
2013-02-25 11:00:00,29.7,16.7,30.12,SSE,158,1.0,1.0,58,0.00,,,0.00,Wunderground v.1.13,2013-02-25 16:00:00,
2013-02-25 11:30:00,31.8,15.7,30.11,SSE,152,1.0,2.0,51,0.00,,,0.00,Wunderground v.1.13,2013-02-25 16:30:00,
2013-02-25 12:00:00,33.1,14.0,30.11,SSE,157,1.0,1.0,45,0.00,,,0.00,Wunderground v.1.13,2013-02-25 17:00:00,
2013-02-25 12:30:00,33.4,8.0,30.12,South,176,1.0,1.0,34,0.00,,,0.00,Wunderground v.1.13,2013-02-25 17:30:00,
2013-02-25 13:00:00,35.0,5.1,30.12,SW,232,1.0,2.0,28,0.00,,,0.00,Wunderground v.1.13,2013-02-25 18:00:00,
2013-02-25 13:30:00,35.3,5.4,30.12,SE,124,1.0,1.0,28,0.00,,,0.00,Wunderground v.1.13,2013-02-25 18:30:00,
2013-02-25 14:00:00,36.9,9.0,30.12,ESE,103,1.0,1.0,31,0.00,,,0.00,Wunderground v.1.13,2013-02-25 19:00:00,
2013-02-25 14:30:00,37.3,9.4,30.13,North,0,1.0,1.0,31,0.00,,,0.00,Wunderground v.1.13,2013-02-25 19:30:00,
2013-02-25 15:00:00,37.6,10.4,30.13,NNE,13,1.0,1.0,32,0.00,,,0.00,Wunderground v.1.13,2013-02-25 20:00:00,
2013-02-25 15:30:00,36.3,11.9,30.14,East,100,2.0,2.0,36,0.00,,,0.00,Wunderground v.1.13,2013-02-25 20:30:00,
2013-02-25 16:00:00,35.3,6.9,30.15,East,96,0.0,0.0,30,0.00,,,0.00,Wunderground v.1.13,2013-02-25 21:00:00,
2013-02-25 16:30:00,31.6,13.2,30.16,East,96,0.0,0.0,46,0.00,,,0.00,Wunderground v.1.13,2013-02-25 21:30:00,
2013-02-25 17:00:00,27.3,14.8,30.16,East,96,0.0,0.0,59,0.00,,,0.00,Wunderground v.1.13,2013-02-25 22:00:00,
2013-02-25 17:30:00,24.4,14.0,30.19,East,96,0.0,0.0,64,0.00,,,0.00,Wunderground v.1.13,2013-02-25 22:30:00,
2013-02-25 18:00:00,21.6,13.0,30.20,East,96,0.0,0.0,69,0.00,,,0.00,Wunderground v.1.13,2013-02-25 23:00:00,
2013-02-25 18:30:00,19.9,13.6,30.21,East,96,0.0,0.0,76,0.00,,,0.00,Wunderground v.1.13,2013-02-25 23:30:00,
2013-02-25 19:00:00,18.4,12.1,30.22,East,96,0.0,0.0,76,0.00,,,0.00,Wunderground v.1.13,2013-02-26 00:00:00,
2013-02-25 19:30:00,17.3,13.0,30.22,East,96,0.0,0.0,83,0.00,,,0.00,Wunderground v.1.13,2013-02-26 00:30:00,
2013-02-25 20:00:00,16.1,11.8,30.23,East,96,0.0,2.0,83,0.00,,,0.00,Wunderground v.1.13,2013-02-26 01:00:00,
2013-02-25 20:30:00,15.2,11.5,30.23,East,96,0.0,0.0,85,0.00,,,0.00,Wunderground v.1.13,2013-02-26 01:30:00,
2013-02-25 21:00:00,14.4,10.7,30.23,East,96,0.0,0.0,85,0.00,,,0.00,Wunderground v.1.13,2013-02-26 02:00:00,
2013-02-25 21:30:00,13.9,10.5,30.22,East,90,0.0,2.0,86,0.00,,,0.00,Wunderground v.1.13,2013-02-26 02:30:00,
2013-02-25 22:00:00,13.1,10.0,30.23,East,96,0.0,0.0,87,0.00,,,0.00,Wunderground v.1.13,2013-02-26 03:00:00,
2013-02-25 22:30:00,12.4,9.0,30.22,East,96,0.0,1.0,86,0.00,,,0.00,Wunderground v.1.13,2013-02-26 03:30:00,
2013-02-25 23:00:00,11.2,7.6,30.23,East,96,0.0,0.0,85,0.00,,,0.00,Wunderground v.1.13,2013-02-26 04:00:00,
2013-02-25 23:30:00,10.4,6.5,30.24,East,96,0.0,0.0,84,0.00,,,0.00,Wunderground v.1.13,2013-02-26 04:30:00,